Time;durP1;ratioP1;P1;durP2;ratioP2;P2;SDS_P1;SDS_P2;PMS_P1;PMS_P2;Temp;Humidity;BMP_temperature;BMP_pressure;BME280_temperature;BME280_humidity;BME280_pressure;Samples;Min_cycle;Max_cycle;Signal;HPM_P1;HPM_P2
2023/08/04 00:00:09;;;;;;;12.55;3.38;;;16.90;99.90;;;17.16;83.45;99925.31;4993437;28;20514;-83
2023/08/04 00:02:38;;;;;;;9.63;2.80;;;16.90;99.90;;;17.16;83.63;99922.63;4992176;28;20070;-83
2023/08/04 00:05:07;;;;;;;15.05;3.22;;;16.90;99.90;;;17.17;83.44;99924.22;4993877;28;20038;-83
2023/08/04 00:07:35;;;;;;;10.32;3.40;;;16.80;99.90;;;17.17;83.58;99932.31;4957902;28;20066;-83
2023/08/04 00:10:03;;;;;;;7.82;3.30;;;16.90;99.90;;;17.15;83.84;99935.28;5006592;28;20158;-83
2023/08/04 00:12:30;;;;;;;9.07;3.35;;;16.80;99.90;;;17.14;83.63;99927.47;4968269;28;20400;-83
2023/08/04 00:14:58;;;;;;;11.18;3.10;;;16.90;99.90;;;17.14;83.75;99933.66;4997048;28;20583;-83
2023/08/04 00:17:26;;;;;;;11.80;3.20;;;16.80;99.90;;;17.13;83.75;99925.84;5003118;28;20066;-83
2023/08/04 00:19:55;;;;;;;11.68;3.20;;;16.80;99.90;;;17.12;83.84;99927.72;4988527;28;20129;-83
2023/08/04 00:22:23;;;;;;;17.40;3.17;;;16.80;99.90;;;17.12;83.97;99932.31;4975506;28;20787;-83
2023/08/04 00:24:50;;;;;;;12.02;3.60;;;16.80;99.90;;;17.12;83.74;99933.13;4988116;28;20069;-83
2023/08/04 00:27:17;;;;;;;10.75;3.33;;;16.80;99.90;;;17.13;83.73;99936.63;4998356;28;20038;-83
2023/08/04 00:29:44;;;;;;;9.57;3.20;;;16.80;99.90;;;17.11;83.68;99936.09;4996733;28;20077;-83
2023/08/04 00:32:12;;;;;;;10.27;3.28;;;16.80;99.90;;;17.13;84.00;99942.00;4996618;28;20049;-83
2023/08/04 00:34:39;;;;;;;14.27;3.65;;;16.80;99.90;;;17.12;83.86;99940.41;4993251;28;20124;-83
2023/08/04 00:37:08;;;;;;;7.85;2.90;;;16.80;99.90;;;17.13;83.71;99937.44;4982596;28;20049;-83
2023/08/04 00:39:35;;;;;;;15.00;3.40;;;16.80;99.90;;;17.12;83.53;99941.19;4976356;28;20096;-83
2023/08/04 00:42:02;;;;;;;9.32;3.13;;;16.80;99.90;;;17.13;83.47;99958.16;4986512;28;20050;-83
2023/08/04 00:44:31;;;;;;;14.93;3.35;;;16.80;99.90;;;17.12;83.61;99951.97;4988367;28;20044;-83
2023/08/04 00:46:59;;;;;;;13.55;3.38;;;16.80;99.90;;;17.12;83.68;99956.56;4989030;28;20615;-83
2023/08/04 00:49:26;;;;;;;10.00;3.60;;;16.80;99.90;;;17.10;83.92;99951.44;4999867;28;20561;-83
2023/08/04 00:51:53;;;;;;;13.10;3.72;;;16.80;99.90;;;17.10;83.70;99964.13;4993173;28;20415;-83
2023/08/04 00:54:22;;;;;;;10.55;3.70;;;16.80;99.90;;;17.07;84.04;99954.66;4994582;28;20077;-83
2023/08/04 00:56:51;;;;;;;7.45;3.38;;;16.70;99.90;;;17.06;83.82;99957.63;4996706;28;20065;-83
2023/08/04 00:59:18;;;;;;;12.57;3.67;;;16.70;99.90;;;17.05;84.09;99956.03;4989780;28;20105;-83
2023/08/04 01:01:47;;;;;;;11.05;3.95;;;16.70;99.90;;;17.04;84.43;99965.19;4990325;28;20038;-83
2023/08/04 01:04:15;;;;;;;13.52;3.60;;;16.70;99.90;;;17.04;84.38;99959.78;4990215;28;20080;-83
2023/08/04 01:06:59;;;;;;;9.57;3.97;;;16.70;99.90;;;17.05;84.20;99961.41;4989836;28;20514;-83
2023/08/04 01:09:44;;;;;;;6.13;3.28;;;16.70;99.90;;;17.04;84.38;99970.56;4981462;28;20047;-83
2023/08/04 01:12:18;;;;;;;8.57;3.58;;;16.70;99.90;;;17.03;84.55;99968.94;4982294;28;20500;-83
2023/08/04 01:14:50;;;;;;;9.63;4.13;;;16.70;99.90;;;17.02;84.79;99973.50;5005635;28;20219;-83
2023/08/04 01:17:26;;;;;;;8.30;3.90;;;16.70;99.90;;;17.03;84.80;99974.31;4988533;28;20542;-83
2023/08/04 01:19:54;;;;;;;13.30;3.85;;;16.80;99.90;;;17.04;84.63;99965.19;5000979;28;20058;-83
2023/08/04 01:22:24;;;;;;;9.57;3.90;;;16.70;99.90;;;17.05;84.64;99966.81;4983322;28;20043;-83
2023/08/04 01:24:54;;;;;;;12.13;3.75;;;16.70;99.90;;;17.05;84.81;99970.31;4982510;28;20093;-83
2023/08/04 01:27:29;;;;;;;12.90;4.07;;;16.70;99.90;;;17.03;84.55;99968.94;4996047;28;20488;-83
2023/08/04 01:29:59;;;;;;;10.52;3.80;;;16.70;99.90;;;17.02;84.41;99970.81;4995042;28;20034;-83
2023/08/04 01:32:27;;;;;;;11.40;3.90;;;16.70;99.90;;;17.01;84.54;99965.72;4995109;28;20043;-83
2023/08/04 01:34:55;;;;;;;9.60;4.22;;;16.70;99.90;;;16.99;84.92;99969.47;5000088;28;20573;-83
2023/08/04 01:37:23;;;;;;;13.50;4.10;;;16.70;99.90;;;16.98;84.82;99973.25;4993080;28;20041;-83
2023/08/04 01:39:51;;;;;;;13.27;4.05;;;16.70;99.90;;;16.98;85.12;99978.66;4999316;28;20525;-83
2023/08/04 01:42:19;;;;;;;11.65;4.20;;;16.70;99.90;;;16.98;85.08;99977.81;5002923;28;20523;-83
2023/08/04 01:44:46;;;;;;;11.60;4.18;;;16.70;99.90;;;16.98;85.05;99983.19;4994129;28;20077;-83
2023/08/04 01:47:14;;;;;;;11.88;4.60;;;16.70;99.90;;;16.96;85.04;99986.16;4985511;28;20038;-83
2023/08/04 01:49:41;;;;;;;13.48;4.85;;;16.70;99.90;;;16.97;84.92;99986.97;4985188;28;20054;-83
2023/08/04 01:52:08;;;;;;;10.27;3.97;;;16.70;99.90;;;16.96;84.94;99990.75;5004739;28;20048;-83
2023/08/04 01:54:37;;;;;;;11.35;3.80;;;16.70;99.90;;;16.96;85.12;99985.34;4991786;28;21285;-83
2023/08/04 01:57:05;;;;;;;13.73;4.72;;;16.70;99.90;;;16.96;84.80;99994.25;4989451;28;20468;-83
2023/08/04 01:59:33;;;;;;;10.82;4.40;;;16.70;99.90;;;16.96;84.92;99991.56;5001512;28;20050;-83
2023/08/04 02:02:00;;;;;;;13.10;4.35;;;16.70;99.90;;;16.94;84.80;99988.31;4992891;28;20077;-83
2023/08/04 02:04:27;;;;;;;10.25;3.85;;;16.60;99.90;;;16.93;84.96;99991.25;4994156;28;20034;-83
2023/08/04 02:06:54;;;;;;;14.77;4.22;;;16.60;99.90;;;16.91;84.82;99993.44;4989538;28;20504;-83
2023/08/04 02:09:22;;;;;;;18.00;4.15;;;16.60;99.90;;;16.87;84.89;99995.84;4990579;28;20065;-83
2023/08/04 02:11:52;;;;;;;15.38;5.00;;;16.60;99.90;;;16.85;85.06;100002.56;4987953;28;20042;-83
2023/08/04 02:14:19;;;;;;;14.27;4.75;;;16.50;99.90;;;16.85;85.01;99994.50;4993063;28;20058;-83
2023/08/04 02:16:46;;;;;;;10.13;4.30;;;16.50;99.90;;;16.82;84.59;100003.91;4994774;28;20038;-83
2023/08/04 02:19:13;;;;;;;11.65;4.22;;;16.50;99.90;;;16.83;84.58;99996.63;4984088;28;20418;-83
2023/08/04 02:21:40;;;;;;;11.82;4.50;;;16.50;99.90;;;16.83;84.53;100002.00;4982939;28;20046;-83
2023/08/04 02:24:08;;;;;;;14.40;4.57;;;16.50;99.90;;;16.82;84.56;100006.59;5005660;28;20478;-83
2023/08/04 02:26:35;;;;;;;12.85;4.50;;;16.50;99.90;;;16.84;84.30;100007.16;5010234;28;20051;-83
2023/08/04 02:29:06;;;;;;;12.00;4.30;;;16.50;99.90;;;16.84;84.21;100003.66;5005751;28;20042;-83
2023/08/04 02:31:33;;;;;;;13.93;4.53;;;16.50;99.90;;;16.82;83.98;99995.81;4994970;28;20124;-83
2023/08/04 02:34:01;;;;;;;18.33;4.65;;;16.50;99.90;;;16.81;84.52;99999.59;4982256;28;20046;-83
2023/08/04 02:36:28;;;;;;;13.63;4.57;;;16.50;99.90;;;16.83;84.02;99997.44;4997752;28;20042;-83
2023/08/04 02:38:55;;;;;;;12.18;4.55;;;16.40;99.90;;;16.83;83.82;99992.03;4992178;28;20039;-83
2023/08/04 02:41:23;;;;;;;11.10;4.68;;;16.50;99.90;;;16.84;83.68;100004.47;4990839;28;20141;-83
2023/08/04 02:43:50;;;;;;;15.52;4.70;;;16.40;99.90;;;16.84;83.46;99999.06;4993265;28;20068;-84
2023/08/04 02:46:20;;;;;;;13.43;4.57;;;16.50;99.90;;;16.84;83.44;100007.16;4988634;28;20495;-84
2023/08/04 02:48:47;;;;;;;10.77;4.57;;;16.50;99.90;;;16.85;83.15;100007.97;4989693;28;20042;-84
2023/08/04 02:51:15;;;;;;;16.33;4.20;;;16.50;99.90;;;16.84;83.29;100006.34;4999125;28;20043;-84
2023/08/04 02:53:45;;;;;;;10.80;4.40;;;16.50;99.90;;;16.85;82.83;100022.22;5002361;28;20066;-83
2023/08/04 02:56:14;;;;;;;9.50;4.30;;;16.50;99.90;;;16.84;83.00;100012.53;4979297;28;20415;-83
2023/08/04 02:58:44;;;;;;;11.63;4.45;;;16.50;99.90;;;16.84;82.94;100020.63;4991062;28;20042;-83
2023/08/04 03:01:12;;;;;;;10.15;4.65;;;16.50;99.90;;;16.84;82.99;100015.22;5003964;28;20120;-83
2023/08/04 03:03:40;;;;;;;9.35;4.60;;;16.50;99.90;;;16.83;82.83;100016.28;4993373;28;20042;-83
2023/08/04 03:06:08;;;;;;;12.40;4.45;;;16.50;99.90;;;16.82;82.88;100013.88;4985466;28;20047;-83
2023/08/04 03:08:35;;;;;;;10.82;4.47;;;16.50;99.90;;;16.81;83.00;100014.94;4986230;28;20038;-83
2023/08/04 03:11:04;;;;;;;14.05;4.95;;;16.50;99.90;;;16.80;83.19;100024.09;4988478;28;20082;-83
2023/08/04 03:13:32;;;;;;;12.50;5.45;;;16.40;99.90;;;16.77;83.30;100021.91;5002591;28;20774;-83
2023/08/04 03:16:02;;;;;;;12.75;4.68;;;16.40;99.90;;;16.76;83.44;100015.72;4998551;28;20113;-83
2023/08/04 03:18:29;;;;;;;14.23;4.97;;;16.40;99.90;;;16.74;83.32;100025.97;4986775;28;20508;-83
2023/08/04 03:21:02;;;;;;;16.15;5.55;;;16.40;99.90;;;16.74;83.79;100025.97;4970850;28;20042;-83
2023/08/04 03:23:29;;;;;;;14.18;5.28;;;16.40;99.90;;;16.75;83.39;100029.47;4998903;28;20080;-83
2023/08/04 03:25:56;;;;;;;11.65;5.45;;;16.40;99.90;;;16.75;83.55;100026.78;4998205;28;20041;-83
2023/08/04 03:28:24;;;;;;;11.23;5.13;;;16.40;99.90;;;16.75;83.29;100032.16;4988139;28;20129;-83
2023/08/04 03:30:51;;;;;;;14.52;5.45;;;16.40;99.90;;;16.75;83.64;100032.16;4990092;28;20035;-83
2023/08/04 03:33:19;;;;;;;11.48;5.40;;;16.40;99.90;;;16.75;83.52;100043.75;4988172;28;20070;-83
2023/08/04 03:35:46;;;;;;;14.50;5.00;;;16.40;99.90;;;16.73;83.63;100046.69;4985017;28;20042;-84
2023/08/04 03:38:15;;;;;;;13.57;5.95;;;16.40;99.90;;;16.72;83.60;100044.25;4982866;28;20062;-85
2023/08/04 03:40:42;;;;;;;13.32;5.25;;;16.40;99.90;;;16.74;83.79;100047.50;4990914;28;20034;-83
2023/08/04 03:43:10;;;;;;;12.60;5.50;;;16.40;99.90;;;16.74;83.77;100042.13;4987087;28;20085;-82
2023/08/04 03:45:37;;;;;;;19.55;6.18;;;16.40;99.90;;;16.74;83.98;100052.91;4987219;28;20477;-82
2023/08/04 03:48:05;;;;;;;13.55;5.65;;;16.40;99.90;;;16.73;83.83;100052.06;4986203;28;20093;-82
2023/08/04 03:50:32;;;;;;;12.68;5.25;;;16.40;99.90;;;16.72;84.17;100047.75;4993190;28;20558;-82
2023/08/04 03:52:59;;;;;;;14.88;5.50;;;16.40;99.90;;;16.73;84.59;100056.63;4979467;28;20065;-82
2023/08/04 03:55:28;;;;;;;13.18;5.60;;;16.40;99.90;;;16.73;84.28;100059.34;4990110;28;20058;-82
2023/08/04 03:57:55;;;;;;;13.23;5.97;;;16.40;99.90;;;16.72;84.18;100063.91;4983509;28;20085;-82
2023/08/04 04:00:23;;;;;;;17.73;6.38;;;16.40;99.90;;;16.69;84.42;100059.03;4991405;28;20137;-82
2023/08/04 04:02:50;;;;;;;13.80;5.75;;;16.40;99.90;;;16.68;84.52;100062.78;4983918;28;20076;-82
2023/08/04 04:05:17;;;;;;;12.27;5.80;;;16.40;99.90;;;16.70;84.53;100066.03;4988847;28;20064;-82
2023/08/04 04:07:44;;;;;;;19.33;6.28;;;16.40;99.90;;;16.69;84.23;100067.13;4983432;28;20046;-82
2023/08/04 04:10:12;;;;;;;14.38;5.70;;;16.30;99.90;;;16.68;84.54;100065.47;4990138;28;20046;-82
2023/08/04 04:12:40;;;;;;;15.82;5.88;;;16.40;99.90;;;16.68;84.55;100068.16;4992168;28;20077;-82
2023/08/04 04:15:09;;;;;;;14.57;6.80;;;16.40;99.90;;;16.68;84.53;100064.66;4991108;28;20038;-83
2023/08/04 04:17:37;;;;;;;18.52;6.32;;;16.30;99.90;;;16.68;84.75;100072.75;4991935;28;20046;-83
2023/08/04 04:20:05;;;;;;;17.30;6.32;;;16.30;99.90;;;16.69;84.72;100074.38;5000516;28;20136;-83
2023/08/04 04:22:33;;;;;;;15.43;6.18;;;16.40;99.90;;;16.69;84.67;100077.06;4981139;28;20783;-83
2023/08/04 04:25:02;;;;;;;18.52;6.53;;;16.40;99.90;;;16.68;84.74;100078.13;4979482;28;20062;-83
2023/08/04 04:27:29;;;;;;;20.73;6.75;;;16.40;99.90;;;16.68;84.81;100070.84;5003110;28;20043;-83
2023/08/04 04:29:58;;;;;;;13.95;6.40;;;16.40;99.90;;;16.68;84.75;100070.03;4985647;28;20036;-83
2023/08/04 04:32:25;;;;;;;13.38;6.28;;;16.40;99.90;;;16.69;85.09;100079.78;4988978;28;20054;-83
2023/08/04 04:34:53;;;;;;;15.43;7.07;;;16.40;99.90;;;16.69;84.86;100080.59;4991510;28;20125;-83
2023/08/04 04:37:20;;;;;;;15.68;6.32;;;16.40;99.90;;;16.69;85.25;100087.84;4994605;28;20126;-83
2023/08/04 04:39:47;;;;;;;14.70;6.65;;;16.40;99.90;;;16.68;85.26;100078.13;4996514;28;20043;-82
2023/08/04 04:42:16;;;;;;;15.25;6.80;;;16.40;99.90;;;16.66;85.35;100086.47;4992019;28;20074;-82
2023/08/04 04:44:44;;;;;;;16.88;6.70;;;16.40;99.90;;;16.64;85.54;100095.88;4985576;28;20120;-83
2023/08/04 04:47:12;;;;;;;17.25;7.20;;;16.30;99.90;;;16.66;85.82;100094.56;4989747;28;20061;-83
2023/08/04 04:49:40;;;;;;;18.38;7.05;;;16.40;99.90;;;16.69;85.75;100094.03;4990293;28;20565;-85
2023/08/04 04:52:10;;;;;;;16.95;6.82;;;16.40;99.90;;;16.69;85.84;100094.03;4998813;28;20066;-87
2023/08/04 04:54:38;;;;;;;17.65;6.40;;;16.40;99.90;;;16.71;85.52;100099.16;4989209;28;20093;-86
2023/08/04 04:57:07;;;;;;;17.58;6.20;;;16.40;99.90;;;16.70;85.65;100095.66;4987905;28;20073;-86
2023/08/04 04:59:34;;;;;;;18.77;7.18;;;16.40;99.90;;;16.72;85.78;100103.50;4937531;28;20404;-86
2023/08/04 05:02:01;;;;;;;18.52;7.05;;;16.40;99.90;;;16.73;86.06;100105.13;4984815;28;20050;-87
2023/08/04 05:04:30;;;;;;;18.08;6.78;;;16.50;99.90;;;16.73;85.77;100110.50;4993214;28;20226;-86
2023/08/04 05:06:57;;;;;;;17.90;6.78;;;16.50;99.90;;;16.72;86.03;100108.88;4995523;28;20088;-86
2023/08/04 05:09:25;;;;;;;13.85;6.95;;;16.40;99.90;;;16.73;85.81;100105.13;4987317;28;20046;-86
2023/08/04 05:11:52;;;;;;;20.23;7.07;;;16.50;99.90;;;16.72;86.35;100108.88;4985803;28;20082;-86
2023/08/04 05:14:19;;;;;;;18.88;7.05;;;16.40;99.90;;;16.73;86.34;100115.88;4998735;28;20150;-86
2023/08/04 05:16:46;;;;;;;16.52;6.78;;;16.40;99.90;;;16.75;86.38;100111.06;4982968;28;20547;-86
2023/08/04 05:19:13;;;;;;;13.02;6.88;;;16.50;99.90;;;16.76;86.54;100109.19;5005028;28;20746;-86
2023/08/04 05:21:42;;;;;;;14.90;7.10;;;16.50;99.90;;;16.76;86.68;100103.78;4985754;28;20133;-86
2023/08/04 05:24:10;;;;;;;20.60;6.63;;;16.50;99.90;;;16.77;86.80;100111.59;4994296;28;20519;-86
2023/08/04 05:26:37;;;;;;;20.38;7.88;;;16.50;99.90;;;16.78;86.52;100112.41;4992863;28;20503;-86
2023/08/04 05:29:04;;;;;;;17.35;7.43;;;16.50;99.90;;;16.80;86.90;100115.69;4976309;28;20141;-86
2023/08/04 05:31:32;;;;;;;14.00;7.05;;;16.60;99.90;;;16.80;87.04;100118.38;4991120;28;20065;-86
2023/08/04 05:34:01;;;;;;;15.93;7.25;;;16.60;99.90;;;16.82;86.83;100114.31;4989465;28;20073;-87
2023/08/04 05:36:28;;;;;;;21.08;8.40;;;16.60;99.90;;;16.84;86.76;100117.59;4987908;28;20050;-87
2023/08/04 05:38:57;;;;;;;19.52;8.00;;;16.60;99.90;;;16.86;87.05;100120.00;4985095;28;20050;-87
2023/08/04 05:41:24;;;;;;;16.13;7.45;;;16.70;99.90;;;16.93;87.33;100117.88;4989308;28;20047;-87
2023/08/04 05:43:52;;;;;;;21.98;8.10;;;16.80;99.90;;;16.99;87.50;100130.31;4961236;28;20082;-87
2023/08/04 05:46:19;;;;;;;20.83;8.45;;;16.80;99.90;;;17.01;87.40;100127.34;4998245;28;20062;-87
2023/08/04 05:48:46;;;;;;;23.92;9.75;;;16.80;99.90;;;17.00;87.76;100126.56;4987521;28;20046;-87
2023/08/04 05:51:15;;;;;;;19.00;8.90;;;16.80;99.90;;;17.03;87.93;100125.19;4992868;28;20074;-87
2023/08/04 05:53:43;;;;;;;22.17;9.25;;;16.90;99.90;;;17.05;87.59;100136.53;4989999;28;20042;-87
2023/08/04 05:56:12;;;;;;;27.50;9.88;;;16.90;99.90;;;17.06;88.09;100146.25;5006015;28;20523;-87
2023/08/04 05:58:39;;;;;;;20.33;9.02;;;16.90;99.90;;;17.08;88.54;100142.22;4979396;28;20074;-87
2023/08/04 06:01:06;;;;;;;20.83;9.02;;;16.90;99.90;;;17.11;88.42;100146.28;4989210;28;20053;-86
2023/08/04 06:03:34;;;;;;;20.02;8.82;;;16.90;99.90;;;17.12;88.87;100155.97;4985252;28;20047;-87
2023/08/04 06:06:01;;;;;;;21.85;9.27;;;16.90;99.90;;;17.13;88.59;100160.28;5004954;28;20077;-87
2023/08/04 06:08:28;;;;;;;20.55;8.95;;;17.00;99.90;;;17.14;88.68;100154.66;4988373;28;20049;-88
2023/08/04 06:10:56;;;;;;;23.83;8.90;;;17.00;99.90;;;17.17;88.89;100153.28;4997884;28;20093;-87
2023/08/04 06:13:25;;;;;;;24.90;9.30;;;17.00;99.90;;;17.16;89.04;100163.28;4991350;28;20133;-88
2023/08/04 06:15:52;;;;;;;20.58;8.43;;;17.00;99.90;;;17.15;88.96;100164.34;4987979;28;20042;-87
2023/08/04 06:18:20;;;;;;;17.73;8.35;;;17.00;99.90;;;17.14;88.68;100160.03;4982394;28;20039;-88
2023/08/04 06:20:50;;;;;;;19.17;9.15;;;17.00;99.90;;;17.12;88.95;100164.84;4980579;28;20042;-88
2023/08/04 06:23:17;;;;;;;22.88;9.40;;;16.80;99.90;;;17.13;89.18;100169.19;4989790;28;20045;-88
2023/08/04 06:25:45;;;;;;;22.10;9.35;;;17.00;99.90;;;17.15;89.70;100172.44;4993662;28;20038;-86
2023/08/04 06:28:12;;;;;;;22.65;9.18;;;17.00;99.90;;;17.17;89.59;100167.56;4985736;28;20088;-86
2023/08/04 06:30:41;;;;;;;22.15;10.20;;;17.00;99.90;;;17.19;89.89;100175.44;4989975;28;20142;-86
2023/08/04 06:33:08;;;;;;;23.38;10.18;;;17.00;99.90;;;17.19;89.64;100178.94;4993248;28;20499;-87
2023/08/04 06:35:40;;;;;;;21.23;10.48;;;17.10;99.90;;;17.19;89.20;100183.50;4989575;28;20089;-87
2023/08/04 06:38:08;;;;;;;25.25;11.02;;;17.10;99.90;;;17.19;89.63;100178.13;4986689;28;20052;-86
2023/08/04 06:40:36;;;;;;;21.45;11.00;;;17.10;99.90;;;17.21;89.73;100184.84;4985322;28;20053;-87
2023/08/04 06:43:03;;;;;;;25.35;11.70;;;17.10;99.90;;;17.26;90.14;100186.75;5005102;28;20054;-87
2023/08/04 06:45:30;;;;;;;24.83;12.18;;;17.10;99.90;;;17.24;90.17;100191.63;4982702;28;20133;-87
2023/08/04 06:47:59;;;;;;;31.88;13.00;;;17.10;99.90;;;17.23;89.56;100192.69;4992169;28;20061;-87
2023/08/04 06:50:27;;;;;;;25.95;13.25;;;17.10;99.90;;;17.24;91.40;100197.00;4987987;28;20084;-87
2023/08/04 06:52:54;;;;;;;33.78;14.05;;;17.10;99.90;;;17.22;90.19;100191.06;4992923;28;20052;-87
2023/08/04 06:55:21;;;;;;;36.40;13.80;;;17.10;99.90;;;17.23;90.11;100195.41;4989003;28;20488;-87
2023/08/04 06:57:49;;;;;;;25.65;13.75;;;17.10;99.90;;;17.22;89.81;100199.13;4993603;28;20050;-87
2023/08/04 07:00:17;;;;;;;26.25;13.23;;;17.10;99.90;;;17.23;90.66;100208.88;4983233;28;20487;-87
2023/08/04 07:02:47;;;;;;;26.83;13.20;;;17.10;99.90;;;17.27;90.96;100211.81;5001576;28;20141;-86
2023/08/04 07:05:17;;;;;;;32.22;14.40;;;17.20;99.90;;;17.30;91.23;100214.00;4989256;28;20067;-87
2023/08/04 07:07:46;;;;;;;29.95;14.57;;;17.20;99.90;;;17.31;91.29;100210.25;4989324;28;20178;-87
2023/08/04 07:10:14;;;;;;;31.52;13.30;;;17.20;99.90;;;17.32;91.65;100209.97;4991245;28;20448;-87
2023/08/04 07:12:41;;;;;;;27.45;13.82;;;17.20;99.90;;;17.35;91.67;100211.34;4988082;28;20062;-87
2023/08/04 07:15:10;;;;;;;28.77;13.70;;;17.20;99.90;;;17.30;91.17;100214.81;5003892;28;20074;-87
2023/08/04 07:17:37;;;;;;;31.40;15.10;;;17.30;99.90;;;17.32;90.89;100220.75;4990751;28;20042;-87
2023/08/04 07:20:06;;;;;;;29.23;14.10;;;17.20;99.90;;;17.32;90.71;100228.84;4987304;28;20050;-86
2023/08/04 07:22:35;;;;;;;27.98;13.68;;;17.20;99.90;;;17.31;89.78;100219.13;4990963;28;20567;-87
2023/08/04 07:25:02;;;;;;;31.85;13.05;;;17.20;99.90;;;17.31;90.68;100229.91;4994417;28;20133;-88
2023/08/04 07:27:30;;;;;;;34.95;14.60;;;17.20;99.90;;;17.37;91.44;100228.91;4988313;28;20050;-88
2023/08/04 07:29:57;;;;;;;27.63;14.40;;;17.30;99.90;;;17.41;91.40;100235.34;4967482;28;20051;-88
2023/08/04 07:32:24;;;;;;;24.80;13.80;;;17.30;99.90;;;17.39;90.68;100225.94;5007703;28;20073;-88
2023/08/04 07:34:52;;;;;;;31.73;15.52;;;17.30;99.90;;;17.36;90.56;100232.63;4985968;28;20420;-88
2023/08/04 07:37:19;;;;;;;33.03;16.48;;;17.30;99.90;;;17.39;90.82;100231.31;4980864;28;20082;-86
2023/08/04 07:39:48;;;;;;;29.48;15.43;;;17.40;99.90;;;17.43;90.92;100235.94;4990392;28;20137;-86
2023/08/04 07:42:15;;;;;;;28.95;15.48;;;17.40;99.90;;;17.46;91.09;100238.06;4982896;28;20132;-85
2023/08/04 07:44:42;;;;;;;32.28;16.17;;;17.40;99.90;;;17.49;91.70;100234.06;4995568;28;20041;-85
2023/08/04 07:47:09;;;;;;;33.40;16.45;;;17.50;99.90;;;17.47;91.51;100231.63;4991697;28;20124;-86
2023/08/04 07:49:37;;;;;;;31.65;16.88;;;17.50;99.90;;;17.45;91.83;100241.84;4991763;28;20720;-86
2023/08/04 07:52:05;;;;;;;37.58;18.35;;;17.50;99.90;;;17.48;92.32;100240.53;4992531;28;20074;-86
2023/08/04 07:54:33;;;;;;;34.15;17.70;;;17.50;99.90;;;17.49;91.94;100239.44;4953806;28;20515;-86
2023/08/04 07:57:03;;;;;;;34.53;17.65;;;17.50;99.90;;;17.51;91.07;100232.72;4991293;28;20077;-86
2023/08/04 07:59:31;;;;;;;33.40;18.98;;;17.50;99.90;;;17.55;91.96;100234.88;4991861;28;20113;-86
2023/08/04 08:01:58;;;;;;;37.83;19.73;;;17.60;99.90;;;17.58;91.61;100234.38;4994233;28;20849;-86
2023/08/04 08:04:26;;;;;;;40.67;20.35;;;17.60;99.90;;;17.60;90.33;100229.50;4994802;28;20128;-86
2023/08/04 08:06:53;;;;;;;36.40;19.77;;;17.60;99.90;;;17.64;90.69;100239.53;4990843;28;20101;-86
2023/08/04 08:09:20;;;;;;;43.15;20.52;;;17.60;99.90;;;17.75;91.14;100241.19;4981262;28;20072;-86
2023/08/04 08:11:48;;;;;;;33.40;20.10;;;17.80;99.90;;;17.98;91.89;100239.94;4987191;28;20459;-86
2023/08/04 08:14:17;;;;;;;44.95;22.50;;;18.10;99.90;;;18.21;94.95;100237.84;4981194;28;20570;-85
2023/08/04 08:16:45;;;;;;;39.00;18.88;;;18.30;99.90;;;18.38;93.38;100237.56;4977797;28;20074;-85
2023/08/04 08:19:12;;;;;;;31.10;18.77;;;18.60;99.90;;;18.51;90.79;100231.66;4988090;28;20521;-86
2023/08/04 08:21:42;;;;;;;26.35;15.38;;;18.80;99.90;;;18.61;85.37;100228.16;4995169;28;20046;-85
2023/08/04 08:24:10;;;;;;;33.78;15.57;;;18.90;99.90;;;18.63;85.57;100234.06;4992988;28;20050;-85
2023/08/04 08:26:37;;;;;;;23.40;13.82;;;18.90;99.90;;;18.73;85.07;100234.91;5000035;28;20044;-85
2023/08/04 08:29:05;;;;;;;26.42;13.20;;;19.00;99.90;;;18.76;85.34;100238.97;4974919;28;20074;-85
2023/08/04 08:31:34;;;;;;;21.55;11.98;;;19.00;99.90;;;18.62;82.82;100238.66;4995200;28;20041;-86
2023/08/04 08:34:02;;;;;;;26.25;11.35;;;18.90;99.90;;;18.55;83.06;100242.75;4991115;28;20050;-86
2023/08/04 08:36:29;;;;;;;17.98;10.43;;;18.70;99.90;;;18.42;81.78;100244.06;4990715;28;20070;-85
2023/08/04 08:38:56;;;;;;;20.38;9.98;;;18.60;99.90;;;18.33;82.14;100243.78;4985007;28;20058;-85
2023/08/04 08:41:24;;;;;;;18.25;10.57;;;18.50;99.90;;;18.36;83.88;100248.66;4984882;28;20137;-85
2023/08/04 08:43:51;;;;;;;21.85;12.55;;;18.50;99.90;;;18.38;84.61;100249.19;4990851;28;20072;-86
2023/08/04 08:46:19;;;;;;;22.98;13.57;;;18.50;99.90;;;18.32;84.07;100255.66;4991162;28;20408;-83
2023/08/04 08:48:50;;;;;;;26.75;14.15;;;18.40;99.90;;;18.31;84.42;100253.25;4979419;28;20101;-85
2023/08/04 08:51:21;;;;;;;23.48;14.15;;;18.40;99.90;;;18.33;85.07;100256.47;4999702;28;20101;-83
2023/08/04 08:53:50;;;;;;;24.45;14.93;;;18.40;99.90;;;18.35;86.65;100263.25;4997407;28;20053;-84
2023/08/04 08:56:17;;;;;;;22.40;13.32;;;18.50;99.90;;;18.37;87.09;100271.06;4992558;28;20042;-84
2023/08/04 08:58:46;;;;;;;22.15;13.48;;;18.50;99.90;;;18.30;84.51;100268.63;4995248;28;20046;-84
2023/08/04 09:01:13;;;;;;;24.05;12.05;;;18.40;99.90;;;18.26;84.37;100267.53;5000817;28;20045;-84
2023/08/04 09:03:41;;;;;;;19.95;12.70;;;18.30;99.90;;;18.24;85.58;100266.97;4997723;28;20125;-84
2023/08/04 09:06:10;;;;;;;16.65;11.57;;;18.30;99.90;;;18.26;85.11;100270.25;5002669;28;20100;-84
2023/08/04 09:08:37;;;;;;;21.52;10.50;;;18.30;99.90;;;18.26;84.32;100270.25;4990185;28;20064;-84
2023/08/04 09:11:05;;;;;;;24.45;10.65;;;18.30;99.90;;;18.24;84.36;100265.09;4995405;28;20050;-84
2023/08/04 09:13:33;;;;;;;16.30;9.45;;;18.30;99.90;;;18.25;84.73;100265.91;4975160;28;20049;-84
2023/08/04 09:16:00;;;;;;;22.30;9.95;;;18.40;99.90;;;18.32;86.74;100262.97;5001190;28;20054;-84
2023/08/04 09:18:30;;;;;;;19.88;9.40;;;18.40;99.90;;;18.37;85.54;100268.38;4993944;28;20125;-84
2023/08/04 09:21:02;;;;;;;21.38;9.68;;;18.50;99.90;;;18.44;85.26;100267.00;4991155;28;20495;-84
2023/08/04 09:23:31;;;;;;;17.15;8.10;;;18.60;99.90;;;18.62;87.56;100271.09;4994195;28;20076;-84
2023/08/04 09:25:58;;;;;;;14.20;8.10;;;18.90;99.90;;;18.87;86.36;100267.59;4982648;28;20526;-83
2023/08/04 09:28:28;;;;;;;11.25;6.22;;;19.20;99.90;;;19.03;82.82;100268.41;4993534;28;20316;-83
2023/08/04 09:31:04;;;;;;;12.60;6.05;;;19.40;99.90;;;19.09;83.18;100274.63;5002882;28;20046;-84
2023/08/04 09:33:32;;;;;;;10.55;4.15;;;19.50;99.90;;;19.02;73.76;100264.88;4992967;28;20066;-84
2023/08/04 09:36:08;;;;;;;10.98;3.72;;;19.40;99.90;;;19.00;74.70;100277.88;4995169;28;20041;-84
2023/08/04 09:38:39;;;;;;;8.82;3.40;;;19.30;99.90;;;19.03;74.98;100280.03;4987055;28;20070;-84
2023/08/04 09:41:09;;;;;;;8.65;3.63;;;19.30;99.90;;;19.08;75.04;100275.69;4986215;28;20125;-83
2023/08/04 09:43:43;;;;;;;8.50;2.88;;;19.40;99.90;;;19.10;72.72;100270.84;4995354;28;20133;-83
2023/08/04 09:46:11;;;;;;;8.02;3.10;;;19.40;99.90;;;19.08;72.06;100276.53;4994265;28;20038;-83
2023/08/04 09:48:38;;;;;;;8.50;3.30;;;19.40;99.90;;;19.07;71.35;100276.78;5012931;28;20054;-83
2023/08/04 09:51:11;;;;;;;6.28;3.38;;;19.30;99.90;;;19.06;72.36;100284.09;4995759;28;20860;-83
2023/08/04 09:53:45;;;;;;;8.73;3.63;;;19.30;99.90;;;19.06;73.99;100281.38;4995487;28;20412;-83
2023/08/04 09:56:14;;;;;;;6.88;3.50;;;19.30;99.90;;;19.05;71.57;100274.34;4993989;28;20070;-83
2023/08/04 09:58:42;;;;;;;7.43;3.80;;;19.30;99.90;;;19.08;73.29;100283.81;4985139;28;20038;-83
2023/08/04 10:01:10;;;;;;;9.68;3.92;;;19.30;99.90;;;19.10;70.51;100282.47;4986876;28;20045;-83
2023/08/04 10:03:41;;;;;;;8.73;4.15;;;19.40;99.90;;;19.09;68.26;100280.84;4992184;28;20046;-83
2023/08/04 10:06:09;;;;;;;10.23;4.93;;;19.40;99.90;;;19.09;69.70;100288.16;5001276;28;20483;-83
2023/08/04 10:08:40;;;;;;;10.68;4.60;;;19.40;99.90;;;19.12;68.85;100287.59;4997598;28;20651;-83
2023/08/04 10:11:10;;;;;;;9.93;4.93;;;19.40;99.90;;;19.15;69.82;100281.66;4992824;28;20042;-83